sensor_id;sensor_type;location;lat;lon;timestamp;P1;durP1;ratioP1;P2;durP2;ratioP2
5871;SDS011;2962;51.312;7.378;2023-01-28T00:02:00;7.57;;;6.80;;
5871;SDS011;2962;51.312;7.378;2023-01-28T00:04:26;9.37;;;6.33;;
5871;SDS011;2962;51.312;7.378;2023-01-28T00:06:51;9.90;;;7.23;;
5871;SDS011;2962;51.312;7.378;2023-01-28T00:09:17;8.20;;;7.38;;
5871;SDS011;2962;51.312;7.378;2023-01-28T00:11:43;7.00;;;6.37;;
5871;SDS011;2962;51.312;7.378;2023-01-28T00:14:09;12.90;;;7.60;;
5871;SDS011;2962;51.312;7.378;2023-01-28T00:16:36;8.27;;;7.50;;
5871;SDS011;2962;51.312;7.378;2023-01-28T00:19:01;7.17;;;6.50;;
5871;SDS011;2962;51.312;7.378;2023-01-28T00:21:27;7.50;;;6.80;;
5871;SDS011;2962;51.312;7.378;2023-01-28T00:23:53;9.30;;;7.60;;
5871;SDS011;2962;51.312;7.378;2023-01-28T00:26:20;8.65;;;7.80;;
5871;SDS011;2962;51.312;7.378;2023-01-28T00:28:46;9.05;;;7.07;;
5871;SDS011;2962;51.312;7.378;2023-01-28T00:31:21;8.23;;;7.03;;
5871;SDS011;2962;51.312;7.378;2023-01-28T00:33:49;7.80;;;7.00;;
5871;SDS011;2962;51.312;7.378;2023-01-28T00:36:15;8.25;;;7.38;;
5871;SDS011;2962;51.312;7.378;2023-01-28T00:38:41;8.32;;;7.40;;
5871;SDS011;2962;51.312;7.378;2023-01-28T00:43:34;8.80;;;7.90;;
5871;SDS011;2962;51.312;7.378;2023-01-28T00:46:00;10.87;;;8.40;;
5871;SDS011;2962;51.312;7.378;2023-01-28T00:48:25;9.73;;;8.00;;
5871;SDS011;2962;51.312;7.378;2023-01-28T00:50:50;10.27;;;7.43;;
5871;SDS011;2962;51.312;7.378;2023-01-28T00:53:15;11.13;;;7.70;;
5871;SDS011;2962;51.312;7.378;2023-01-28T00:55:41;12.87;;;8.10;;
5871;SDS011;2962;51.312;7.378;2023-01-28T00:58:06;13.47;;;8.33;;
5871;SDS011;2962;51.312;7.378;2023-01-28T01:00:31;9.03;;;7.93;;
5871;SDS011;2962;51.312;7.378;2023-01-28T01:02:57;8.93;;;8.00;;
5871;SDS011;2962;51.312;7.378;2023-01-28T01:05:22;11.87;;;8.33;;
5871;SDS011;2962;51.312;7.378;2023-01-28T01:07:47;10.67;;;7.70;;
5871;SDS011;2962;51.312;7.378;2023-01-28T01:10:15;10.47;;;8.30;;
5871;SDS011;2962;51.312;7.378;2023-01-28T01:12:42;10.10;;;8.15;;
5871;SDS011;2962;51.312;7.378;2023-01-28T01:15:10;11.48;;;8.10;;
5871;SDS011;2962;51.312;7.378;2023-01-28T01:17:36;9.53;;;8.47;;
5871;SDS011;2962;51.312;7.378;2023-01-28T01:20:04;8.88;;;7.93;;
5871;SDS011;2962;51.312;7.378;2023-01-28T01:22:33;9.60;;;8.13;;
5871;SDS011;2962;51.312;7.378;2023-01-28T01:25:00;11.77;;;8.15;;
5871;SDS011;2962;51.312;7.378;2023-01-28T01:27:27;8.82;;;7.93;;
5871;SDS011;2962;51.312;7.378;2023-01-28T01:29:53;8.73;;;7.17;;
5871;SDS011;2962;51.312;7.378;2023-01-28T01:32:18;8.73;;;7.70;;
5871;SDS011;2962;51.312;7.378;2023-01-28T01:34:44;8.53;;;7.73;;
5871;SDS011;2962;51.312;7.378;2023-01-28T01:37:09;13.23;;;8.60;;
5871;SDS011;2962;51.312;7.378;2023-01-28T01:39:35;8.00;;;7.30;;
5871;SDS011;2962;51.312;7.378;2023-01-28T01:42:00;9.17;;;7.63;;
5871;SDS011;2962;51.312;7.378;2023-01-28T01:47:19;7.80;;;7.00;;
5871;SDS011;2962;51.312;7.378;2023-01-28T01:49:48;8.98;;;8.23;;
5871;SDS011;2962;51.312;7.378;2023-01-28T01:52:14;7.40;;;6.70;;
5871;SDS011;2962;51.312;7.378;2023-01-28T01:54:46;8.00;;;7.30;;
5871;SDS011;2962;51.312;7.378;2023-01-28T01:57:16;7.47;;;6.78;;
5871;SDS011;2962;51.312;7.378;2023-01-28T01:59:48;10.05;;;6.90;;
5871;SDS011;2962;51.312;7.378;2023-01-28T02:02:13;11.10;;;7.00;;
5871;SDS011;2962;51.312;7.378;2023-01-28T02:04:40;8.60;;;7.73;;
5871;SDS011;2962;51.312;7.378;2023-01-28T02:07:08;7.97;;;6.80;;
5871;SDS011;2962;51.312;7.378;2023-01-28T02:09:36;5.90;;;5.40;;
5871;SDS011;2962;51.312;7.378;2023-01-28T02:12:06;7.28;;;6.43;;
5871;SDS011;2962;51.312;7.378;2023-01-28T02:14:36;6.70;;;6.13;;
5871;SDS011;2962;51.312;7.378;2023-01-28T02:17:06;6.28;;;5.80;;
5871;SDS011;2962;51.312;7.378;2023-01-28T02:19:35;6.43;;;5.93;;
5871;SDS011;2962;51.312;7.378;2023-01-28T02:30:45;7.90;;;6.50;;
5871;SDS011;2962;51.312;7.378;2023-01-28T02:33:18;6.05;;;5.65;;
5871;SDS011;2962;51.312;7.378;2023-01-28T02:35:53;6.00;;;5.47;;
5871;SDS011;2962;51.312;7.378;2023-01-28T02:38:27;5.10;;;4.90;;
5871;SDS011;2962;51.312;7.378;2023-01-28T02:41:04;6.40;;;5.90;;
5871;SDS011;2962;51.312;7.378;2023-01-28T02:43:35;7.43;;;5.45;;
5871;SDS011;2962;51.312;7.378;2023-01-28T02:49:07;6.00;;;5.45;;
5871;SDS011;2962;51.312;7.378;2023-01-28T02:51:42;8.07;;;5.40;;
5871;SDS011;2962;51.312;7.378;2023-01-28T02:57:05;5.40;;;5.10;;
5871;SDS011;2962;51.312;7.378;2023-01-28T03:05:15;5.20;;;4.90;;
5871;SDS011;2962;51.312;7.378;2023-01-28T03:07:46;9.63;;;5.20;;
5871;SDS011;2962;51.312;7.378;2023-01-28T03:10:13;5.30;;;4.80;;
5871;SDS011;2962;51.312;7.378;2023-01-28T03:12:42;5.50;;;5.00;;
5871;SDS011;2962;51.312;7.378;2023-01-28T03:15:28;5.05;;;4.75;;
5871;SDS011;2962;51.312;7.378;2023-01-28T03:18:23;5.65;;;5.30;;
5871;SDS011;2962;51.312;7.378;2023-01-28T03:21:24;5.00;;;4.70;;
5871;SDS011;2962;51.312;7.378;2023-01-28T03:24:26;6.20;;;5.70;;
5871;SDS011;2962;51.312;7.378;2023-01-28T03:31:00;6.15;;;5.75;;
5871;SDS011;2962;51.312;7.378;2023-01-28T03:33:48;5.57;;;5.18;;
5871;SDS011;2962;51.312;7.378;2023-01-28T03:36:34;5.95;;;4.93;;
5871;SDS011;2962;51.312;7.378;2023-01-28T03:39:17;5.43;;;5.10;;
5871;SDS011;2962;51.312;7.378;2023-01-28T03:44:20;5.55;;;5.15;;
5871;SDS011;2962;51.312;7.378;2023-01-28T03:47:05;5.32;;;4.93;;
5871;SDS011;2962;51.312;7.378;2023-01-28T03:49:32;5.35;;;5.07;;
5871;SDS011;2962;51.312;7.378;2023-01-28T03:51:58;5.40;;;5.10;;
5871;SDS011;2962;51.312;7.378;2023-01-28T03:54:23;5.43;;;5.13;;
5871;SDS011;2962;51.312;7.378;2023-01-28T03:56:48;4.80;;;4.50;;
5871;SDS011;2962;51.312;7.378;2023-01-28T03:59:14;4.97;;;4.37;;
5871;SDS011;2962;51.312;7.378;2023-01-28T04:01:39;4.73;;;4.50;;
5871;SDS011;2962;51.312;7.378;2023-01-28T04:04:04;4.90;;;4.60;;
5871;SDS011;2962;51.312;7.378;2023-01-28T04:06:30;4.40;;;4.20;;
5871;SDS011;2962;51.312;7.378;2023-01-28T04:08:55;4.80;;;4.60;;
5871;SDS011;2962;51.312;7.378;2023-01-28T04:11:23;4.53;;;4.32;;
5871;SDS011;2962;51.312;7.378;2023-01-28T04:13:50;4.65;;;4.45;;
5871;SDS011;2962;51.312;7.378;2023-01-28T04:16:16;4.47;;;4.32;;
5871;SDS011;2962;51.312;7.378;2023-01-28T04:18:43;4.72;;;4.38;;
5871;SDS011;2962;51.312;7.378;2023-01-28T04:21:09;4.85;;;4.65;;
5871;SDS011;2962;51.312;7.378;2023-01-28T04:23:34;5.30;;;5.00;;
5871;SDS011;2962;51.312;7.378;2023-01-28T04:26:00;4.67;;;4.57;;
5871;SDS011;2962;51.312;7.378;2023-01-28T04:28:25;4.80;;;4.50;;
5871;SDS011;2962;51.312;7.378;2023-01-28T04:30:51;5.33;;;5.13;;
5871;SDS011;2962;51.312;7.378;2023-01-28T04:33:17;5.73;;;5.33;;
5871;SDS011;2962;51.312;7.378;2023-01-28T04:35:42;5.90;;;5.17;;
5871;SDS011;2962;51.312;7.378;2023-01-28T04:38:08;5.87;;;5.37;;
5871;SDS011;2962;51.312;7.378;2023-01-28T04:40:33;5.90;;;5.40;;
5871;SDS011;2962;51.312;7.378;2023-01-28T04:42:59;6.67;;;6.27;;
5871;SDS011;2962;51.312;7.378;2023-01-28T04:45:24;6.40;;;6.00;;
5871;SDS011;2962;51.312;7.378;2023-01-28T04:47:50;7.43;;;6.60;;
5871;SDS011;2962;51.312;7.378;2023-01-28T04:50:15;7.63;;;6.80;;
5871;SDS011;2962;51.312;7.378;2023-01-28T04:52:40;7.17;;;6.67;;
5871;SDS011;2962;51.312;7.378;2023-01-28T04:55:06;7.90;;;7.30;;
5871;SDS011;2962;51.312;7.378;2023-01-28T04:57:32;7.80;;;7.10;;
5871;SDS011;2962;51.312;7.378;2023-01-28T04:59:57;7.93;;;7.23;;
5871;SDS011;2962;51.312;7.378;2023-01-28T05:02:23;8.27;;;7.47;;
5871;SDS011;2962;51.312;7.378;2023-01-28T05:04:48;8.03;;;7.23;;
5871;SDS011;2962;51.312;7.378;2023-01-28T05:07:13;8.30;;;7.30;;
5871;SDS011;2962;51.312;7.378;2023-01-28T05:09:39;7.53;;;6.77;;
5871;SDS011;2962;51.312;7.378;2023-01-28T05:12:04;8.17;;;6.93;;
5871;SDS011;2962;51.312;7.378;2023-01-28T05:14:29;8.70;;;8.00;;
5871;SDS011;2962;51.312;7.378;2023-01-28T05:16:54;8.63;;;7.93;;
5871;SDS011;2962;51.312;7.378;2023-01-28T05:19:20;9.13;;;8.23;;
5871;SDS011;2962;51.312;7.378;2023-01-28T05:21:45;10.83;;;8.27;;
5871;SDS011;2962;51.312;7.378;2023-01-28T05:24:11;8.90;;;8.00;;
5871;SDS011;2962;51.312;7.378;2023-01-28T05:26:36;10.47;;;9.20;;
5871;SDS011;2962;51.312;7.378;2023-01-28T05:29:02;9.40;;;8.40;;
5871;SDS011;2962;51.312;7.378;2023-01-28T05:31:28;9.63;;;8.63;;
5871;SDS011;2962;51.312;7.378;2023-01-28T05:33:53;9.67;;;8.73;;
5871;SDS011;2962;51.312;7.378;2023-01-28T05:36:18;13.43;;;9.33;;
5871;SDS011;2962;51.312;7.378;2023-01-28T05:38:44;9.63;;;8.63;;
5871;SDS011;2962;51.312;7.378;2023-01-28T05:41:09;10.60;;;9.03;;
5871;SDS011;2962;51.312;7.378;2023-01-28T05:43:34;11.77;;;8.83;;
5871;SDS011;2962;51.312;7.378;2023-01-28T05:46:00;10.00;;;9.07;;
5871;SDS011;2962;51.312;7.378;2023-01-28T05:48:25;10.10;;;9.07;;
5871;SDS011;2962;51.312;7.378;2023-01-28T05:50:50;10.20;;;9.13;;
5871;SDS011;2962;51.312;7.378;2023-01-28T05:53:16;11.37;;;9.60;;
5871;SDS011;2962;51.312;7.378;2023-01-28T05:55:41;9.73;;;8.47;;
5871;SDS011;2962;51.312;7.378;2023-01-28T05:58:06;10.33;;;9.23;;
5871;SDS011;2962;51.312;7.378;2023-01-28T06:00:32;12.30;;;9.50;;
5871;SDS011;2962;51.312;7.378;2023-01-28T06:02:57;9.70;;;8.80;;
5871;SDS011;2962;51.312;7.378;2023-01-28T06:05:22;10.83;;;9.70;;
5871;SDS011;2962;51.312;7.378;2023-01-28T06:07:47;11.10;;;9.60;;
5871;SDS011;2962;51.312;7.378;2023-01-28T06:10:13;11.50;;;10.30;;
5871;SDS011;2962;51.312;7.378;2023-01-28T06:12:41;9.82;;;8.90;;
5871;SDS011;2962;51.312;7.378;2023-01-28T06:15:07;13.50;;;10.17;;
5871;SDS011;2962;51.312;7.378;2023-01-28T06:17:33;10.23;;;9.27;;
5871;SDS011;2962;51.312;7.378;2023-01-28T06:19:58;15.90;;;10.30;;
5871;SDS011;2962;51.312;7.378;2023-01-28T06:22:23;11.57;;;9.93;;
5871;SDS011;2962;51.312;7.378;2023-01-28T06:24:49;11.20;;;10.07;;
5871;SDS011;2962;51.312;7.378;2023-01-28T06:27:14;11.50;;;10.30;;
5871;SDS011;2962;51.312;7.378;2023-01-28T06:29:40;12.87;;;10.80;;
5871;SDS011;2962;51.312;7.378;2023-01-28T06:32:05;12.27;;;9.97;;
5871;SDS011;2962;51.312;7.378;2023-01-28T06:34:30;11.53;;;10.30;;
5871;SDS011;2962;51.312;7.378;2023-01-28T06:36:56;14.23;;;10.40;;
5871;SDS011;2962;51.312;7.378;2023-01-28T06:39:21;12.10;;;10.90;;
5871;SDS011;2962;51.312;7.378;2023-01-28T06:41:47;13.57;;;10.90;;
5871;SDS011;2962;51.312;7.378;2023-01-28T06:44:13;13.05;;;10.40;;
5871;SDS011;2962;51.312;7.378;2023-01-28T06:46:38;12.53;;;10.00;;
5871;SDS011;2962;51.312;7.378;2023-01-28T06:49:03;15.83;;;11.80;;
5871;SDS011;2962;51.312;7.378;2023-01-28T06:51:29;16.07;;;10.97;;
5871;SDS011;2962;51.312;7.378;2023-01-28T06:53:54;16.43;;;11.97;;
5871;SDS011;2962;51.312;7.378;2023-01-28T06:56:19;12.13;;;10.83;;
5871;SDS011;2962;51.312;7.378;2023-01-28T06:58:45;22.97;;;11.20;;
5871;SDS011;2962;51.312;7.378;2023-01-28T07:01:10;15.83;;;11.40;;
5871;SDS011;2962;51.312;7.378;2023-01-28T07:03:35;17.50;;;11.67;;
5871;SDS011;2962;51.312;7.378;2023-01-28T07:06:01;17.40;;;11.93;;
5871;SDS011;2962;51.312;7.378;2023-01-28T07:08:26;15.13;;;12.00;;
5871;SDS011;2962;51.312;7.378;2023-01-28T07:10:51;16.00;;;12.17;;
5871;SDS011;2962;51.312;7.378;2023-01-28T07:13:16;12.97;;;10.43;;
5871;SDS011;2962;51.312;7.378;2023-01-28T07:15:42;14.23;;;10.87;;
5871;SDS011;2962;51.312;7.378;2023-01-28T07:18:07;12.87;;;10.10;;
5871;SDS011;2962;51.312;7.378;2023-01-28T07:20:32;10.73;;;9.17;;
5871;SDS011;2962;51.312;7.378;2023-01-28T07:22:58;11.93;;;10.60;;
5871;SDS011;2962;51.312;7.378;2023-01-28T07:25:23;13.17;;;10.90;;
5871;SDS011;2962;51.312;7.378;2023-01-28T07:27:49;13.23;;;10.43;;
5871;SDS011;2962;51.312;7.378;2023-01-28T07:30:17;10.77;;;9.68;;
5871;SDS011;2962;51.312;7.378;2023-01-28T07:32:43;13.95;;;9.82;;
5871;SDS011;2962;51.312;7.378;2023-01-28T07:35:09;9.53;;;8.50;;
5871;SDS011;2962;51.312;7.378;2023-01-28T07:37:34;11.03;;;9.93;;
5871;SDS011;2962;51.312;7.378;2023-01-28T07:39:59;13.97;;;9.60;;
5871;SDS011;2962;51.312;7.378;2023-01-28T07:42:25;13.50;;;10.70;;
5871;SDS011;2962;51.312;7.378;2023-01-28T07:44:50;11.43;;;9.40;;
5871;SDS011;2962;51.312;7.378;2023-01-28T07:47:15;10.93;;;9.50;;
5871;SDS011;2962;51.312;7.378;2023-01-28T07:49:41;18.40;;;9.53;;
5871;SDS011;2962;51.312;7.378;2023-01-28T07:52:06;13.33;;;9.93;;
5871;SDS011;2962;51.312;7.378;2023-01-28T07:54:32;12.32;;;11.02;;
5871;SDS011;2962;51.312;7.378;2023-01-28T07:56:58;13.90;;;9.90;;
5871;SDS011;2962;51.312;7.378;2023-01-28T07:59:23;11.90;;;9.80;;
5871;SDS011;2962;51.312;7.378;2023-01-28T08:01:49;10.17;;;8.90;;
5871;SDS011;2962;51.312;7.378;2023-01-28T08:04:14;10.70;;;9.60;;
5871;SDS011;2962;51.312;7.378;2023-01-28T08:06:39;11.67;;;9.20;;
5871;SDS011;2962;51.312;7.378;2023-01-28T08:09:05;13.50;;;10.53;;
5871;SDS011;2962;51.312;7.378;2023-01-28T08:11:32;9.63;;;8.73;;
5871;SDS011;2962;51.312;7.378;2023-01-28T08:13:58;12.95;;;9.00;;
5871;SDS011;2962;51.312;7.378;2023-01-28T08:16:24;12.57;;;8.07;;
5871;SDS011;2962;51.312;7.378;2023-01-28T08:18:49;14.03;;;8.30;;
5871;SDS011;2962;51.312;7.378;2023-01-28T08:21:14;8.50;;;7.57;;
5871;SDS011;2962;51.312;7.378;2023-01-28T08:23:40;8.33;;;7.63;;
5871;SDS011;2962;51.312;7.378;2023-01-28T08:26:05;7.40;;;6.70;;
5871;SDS011;2962;51.312;7.378;2023-01-28T08:28:31;6.87;;;6.37;;
5871;SDS011;2962;51.312;7.378;2023-01-28T08:30:58;9.07;;;7.20;;
5871;SDS011;2962;51.312;7.378;2023-01-28T08:33:24;8.30;;;6.90;;
5871;SDS011;2962;51.312;7.378;2023-01-28T08:35:49;8.63;;;7.60;;
5871;SDS011;2962;51.312;7.378;2023-01-28T08:38:14;7.30;;;6.70;;
5871;SDS011;2962;51.312;7.378;2023-01-28T08:40:44;7.05;;;6.45;;
5871;SDS011;2962;51.312;7.378;2023-01-28T08:43:10;7.90;;;7.30;;
5871;SDS011;2962;51.312;7.378;2023-01-28T08:45:35;8.00;;;7.20;;
5871;SDS011;2962;51.312;7.378;2023-01-28T08:48:01;9.57;;;7.97;;
5871;SDS011;2962;51.312;7.378;2023-01-28T08:50:30;8.88;;;7.05;;
5871;SDS011;2962;51.312;7.378;2023-01-28T08:53:00;9.32;;;7.53;;
5871;SDS011;2962;51.312;7.378;2023-01-28T08:55:27;9.32;;;8.00;;
5871;SDS011;2962;51.312;7.378;2023-01-28T08:57:53;9.93;;;7.60;;
5871;SDS011;2962;51.312;7.378;2023-01-28T09:00:19;7.40;;;6.73;;
5871;SDS011;2962;51.312;7.378;2023-01-28T09:02:45;7.28;;;6.60;;
5871;SDS011;2962;51.312;7.378;2023-01-28T09:05:10;7.20;;;6.50;;
5871;SDS011;2962;51.312;7.378;2023-01-28T09:07:36;7.30;;;6.60;;
5871;SDS011;2962;51.312;7.378;2023-01-28T09:10:02;7.32;;;6.90;;
5871;SDS011;2962;51.312;7.378;2023-01-28T09:12:29;7.30;;;6.72;;
5871;SDS011;2962;51.312;7.378;2023-01-28T09:14:54;6.97;;;6.33;;
5871;SDS011;2962;51.312;7.378;2023-01-28T09:17:20;6.73;;;6.13;;
5871;SDS011;2962;51.312;7.378;2023-01-28T09:19:45;13.27;;;7.67;;
5871;SDS011;2962;51.312;7.378;2023-01-28T09:22:11;7.87;;;7.27;;
5871;SDS011;2962;51.312;7.378;2023-01-28T09:24:36;10.03;;;7.40;;
5871;SDS011;2962;51.312;7.378;2023-01-28T09:27:01;7.07;;;6.57;;
5871;SDS011;2962;51.312;7.378;2023-01-28T09:29:26;8.90;;;8.10;;
5871;SDS011;2962;51.312;7.378;2023-01-28T09:31:52;8.40;;;7.80;;
5871;SDS011;2962;51.312;7.378;2023-01-28T09:34:17;9.83;;;8.00;;
5871;SDS011;2962;51.312;7.378;2023-01-28T09:36:42;9.33;;;8.50;;
5871;SDS011;2962;51.312;7.378;2023-01-28T09:39:07;8.73;;;7.83;;
5871;SDS011;2962;51.312;7.378;2023-01-28T09:41:44;8.30;;;7.60;;
5871;SDS011;2962;51.312;7.378;2023-01-28T09:47:36;10.07;;;8.00;;
5871;SDS011;2962;51.312;7.378;2023-01-28T09:50:10;8.77;;;7.03;;
5871;SDS011;2962;51.312;7.378;2023-01-28T09:52:41;8.43;;;7.68;;
5871;SDS011;2962;51.312;7.378;2023-01-28T09:55:16;8.13;;;6.97;;
5871;SDS011;2962;51.312;7.378;2023-01-28T09:57:49;7.03;;;6.50;;
5871;SDS011;2962;51.312;7.378;2023-01-28T10:00:17;7.18;;;6.57;;
5871;SDS011;2962;51.312;7.378;2023-01-28T10:05:44;8.18;;;7.57;;
5871;SDS011;2962;51.312;7.378;2023-01-28T10:11:01;8.77;;;7.93;;
5871;SDS011;2962;51.312;7.378;2023-01-28T10:16:16;8.10;;;7.57;;
5871;SDS011;2962;51.312;7.378;2023-01-28T10:18:55;8.88;;;7.80;;
5871;SDS011;2962;51.312;7.378;2023-01-28T10:21:26;7.78;;;7.05;;
5871;SDS011;2962;51.312;7.378;2023-01-28T10:26:40;7.25;;;6.75;;
5871;SDS011;2962;51.312;7.378;2023-01-28T10:29:12;8.15;;;7.50;;
5871;SDS011;2962;51.312;7.378;2023-01-28T10:31:46;8.00;;;7.25;;
5871;SDS011;2962;51.312;7.378;2023-01-28T10:34:28;6.90;;;6.25;;
5871;SDS011;2962;51.312;7.378;2023-01-28T10:36:54;6.63;;;5.87;;
5871;SDS011;2962;51.312;7.378;2023-01-28T10:39:21;8.13;;;7.43;;
5871;SDS011;2962;51.312;7.378;2023-01-28T10:41:49;7.90;;;7.30;;
5871;SDS011;2962;51.312;7.378;2023-01-28T10:44:15;8.20;;;7.60;;
5871;SDS011;2962;51.312;7.378;2023-01-28T10:46:45;8.70;;;7.43;;
5871;SDS011;2962;51.312;7.378;2023-01-28T10:49:14;8.18;;;7.47;;
5871;SDS011;2962;51.312;7.378;2023-01-28T10:51:45;9.65;;;8.65;;
5871;SDS011;2962;51.312;7.378;2023-01-28T10:54:17;9.70;;;7.57;;
5871;SDS011;2962;51.312;7.378;2023-01-28T10:56:46;9.52;;;8.60;;
5871;SDS011;2962;51.312;7.378;2023-01-28T11:01:50;8.80;;;8.20;;
5871;SDS011;2962;51.312;7.378;2023-01-28T11:04:25;9.10;;;8.25;;
5871;SDS011;2962;51.312;7.378;2023-01-28T11:06:56;8.82;;;8.00;;
5871;SDS011;2962;51.312;7.378;2023-01-28T11:09:27;10.43;;;9.50;;
5871;SDS011;2962;51.312;7.378;2023-01-28T11:14:58;15.00;;;9.45;;
5871;SDS011;2962;51.312;7.378;2023-01-28T11:17:26;12.65;;;9.50;;
5871;SDS011;2962;51.312;7.378;2023-01-28T11:19:55;14.88;;;9.75;;
5871;SDS011;2962;51.312;7.378;2023-01-28T11:22:42;10.15;;;8.93;;
5871;SDS011;2962;51.312;7.378;2023-01-28T11:25:20;13.80;;;10.50;;
5871;SDS011;2962;51.312;7.378;2023-01-28T11:27:52;14.38;;;10.43;;
5871;SDS011;2962;51.312;7.378;2023-01-28T11:30:37;13.82;;;10.65;;
5871;SDS011;2962;51.312;7.378;2023-01-28T11:33:21;14.25;;;11.40;;
5871;SDS011;2962;51.312;7.378;2023-01-28T11:35:53;14.25;;;11.15;;
5871;SDS011;2962;51.312;7.378;2023-01-28T11:38:28;15.45;;;11.10;;
5871;SDS011;2962;51.312;7.378;2023-01-28T11:40:54;15.27;;;11.07;;
5871;SDS011;2962;51.312;7.378;2023-01-28T11:43:22;13.52;;;10.73;;
5871;SDS011;2962;51.312;7.378;2023-01-28T11:54:02;8.48;;;7.68;;
5871;SDS011;2962;51.312;7.378;2023-01-28T11:56:43;10.13;;;8.98;;
5871;SDS011;2962;51.312;7.378;2023-01-28T11:59:46;11.68;;;9.13;;
5871;SDS011;2962;51.312;7.378;2023-01-28T12:02:28;11.52;;;9.70;;
5871;SDS011;2962;51.312;7.378;2023-01-28T12:08:09;16.75;;;12.00;;
5871;SDS011;2962;51.312;7.378;2023-01-28T12:11:11;18.48;;;12.85;;
5871;SDS011;2962;51.312;7.378;2023-01-28T12:22:24;14.55;;;12.05;;
5871;SDS011;2962;51.312;7.378;2023-01-28T12:33:09;8.15;;;7.32;;
5871;SDS011;2962;51.312;7.378;2023-01-28T12:38:45;8.60;;;7.90;;
5871;SDS011;2962;51.312;7.378;2023-01-28T12:41:22;7.47;;;6.88;;
5871;SDS011;2962;51.312;7.378;2023-01-28T12:43:59;6.85;;;6.35;;
5871;SDS011;2962;51.312;7.378;2023-01-28T12:46:47;5.80;;;5.40;;
5871;SDS011;2962;51.312;7.378;2023-01-28T12:52:07;6.43;;;5.63;;
5871;SDS011;2962;51.312;7.378;2023-01-28T12:54:40;6.47;;;5.97;;
5871;SDS011;2962;51.312;7.378;2023-01-28T12:57:23;7.32;;;6.82;;
5871;SDS011;2962;51.312;7.378;2023-01-28T12:59:57;7.05;;;6.55;;
5871;SDS011;2962;51.312;7.378;2023-01-28T13:02:40;6.85;;;6.18;;
5871;SDS011;2962;51.312;7.378;2023-01-28T13:05:12;6.40;;;5.88;;
5871;SDS011;2962;51.312;7.378;2023-01-28T13:07:43;4.50;;;4.35;;
5871;SDS011;2962;51.312;7.378;2023-01-28T13:10:29;5.55;;;4.82;;
5871;SDS011;2962;51.312;7.378;2023-01-28T13:13:03;4.90;;;4.70;;
5871;SDS011;2962;51.312;7.378;2023-01-28T13:15:29;4.95;;;4.63;;
5871;SDS011;2962;51.312;7.378;2023-01-28T13:18:03;6.50;;;5.90;;
5871;SDS011;2962;51.312;7.378;2023-01-28T13:20:45;3.43;;;3.33;;
5871;SDS011;2962;51.312;7.378;2023-01-28T13:23:23;3.20;;;3.10;;
5871;SDS011;2962;51.312;7.378;2023-01-28T13:25:50;3.23;;;3.20;;
5871;SDS011;2962;51.312;7.378;2023-01-28T13:28:30;3.43;;;3.43;;
5871;SDS011;2962;51.312;7.378;2023-01-28T13:31:04;3.87;;;3.63;;
5871;SDS011;2962;51.312;7.378;2023-01-28T13:33:33;3.13;;;3.10;;
5871;SDS011;2962;51.312;7.378;2023-01-28T13:36:43;3.60;;;3.50;;
5871;SDS011;2962;51.312;7.378;2023-01-28T13:41:41;4.20;;;4.00;;
5871;SDS011;2962;51.312;7.378;2023-01-28T13:44:28;5.33;;;5.10;;
5871;SDS011;2962;51.312;7.378;2023-01-28T13:49:43;4.20;;;4.10;;
5871;SDS011;2962;51.312;7.378;2023-01-28T13:54:37;4.43;;;4.23;;
5871;SDS011;2962;51.312;7.378;2023-01-28T13:57:31;4.50;;;4.20;;
5871;SDS011;2962;51.312;7.378;2023-01-28T14:00:36;4.33;;;4.13;;
5871;SDS011;2962;51.312;7.378;2023-01-28T14:08:57;5.27;;;4.87;;
5871;SDS011;2962;51.312;7.378;2023-01-28T14:14:47;5.20;;;4.32;;
5871;SDS011;2962;51.312;7.378;2023-01-28T14:17:50;4.57;;;4.28;;
5871;SDS011;2962;51.312;7.378;2023-01-28T14:20:20;5.95;;;5.45;;
5871;SDS011;2962;51.312;7.378;2023-01-28T14:22:49;5.55;;;5.07;;
5871;SDS011;2962;51.312;7.378;2023-01-28T14:25:21;6.10;;;5.75;;
5871;SDS011;2962;51.312;7.378;2023-01-28T14:27:57;6.55;;;6.05;;
5871;SDS011;2962;51.312;7.378;2023-01-28T14:30:27;5.47;;;5.28;;
5871;SDS011;2962;51.312;7.378;2023-01-28T14:32:54;5.47;;;5.07;;
5871;SDS011;2962;51.312;7.378;2023-01-28T14:35:25;7.23;;;4.87;;
5871;SDS011;2962;51.312;7.378;2023-01-28T14:37:53;5.00;;;4.70;;
5871;SDS011;2962;51.312;7.378;2023-01-28T14:40:20;4.85;;;4.65;;
5871;SDS011;2962;51.312;7.378;2023-01-28T14:42:46;5.20;;;4.97;;
5871;SDS011;2962;51.312;7.378;2023-01-28T14:48:07;3.95;;;3.65;;
5871;SDS011;2962;51.312;7.378;2023-01-28T14:53:37;3.83;;;3.73;;
5871;SDS011;2962;51.312;7.378;2023-01-28T14:59:22;4.10;;;4.00;;
5871;SDS011;2962;51.312;7.378;2023-01-28T15:01:56;3.93;;;3.83;;
5871;SDS011;2962;51.312;7.378;2023-01-28T15:04:30;4.20;;;3.80;;
5871;SDS011;2962;51.312;7.378;2023-01-28T15:07:00;4.13;;;3.90;;
5871;SDS011;2962;51.312;7.378;2023-01-28T15:09:39;4.43;;;4.23;;
5871;SDS011;2962;51.312;7.378;2023-01-28T15:12:04;4.20;;;4.10;;
5871;SDS011;2962;51.312;7.378;2023-01-28T15:14:31;3.80;;;3.60;;
5871;SDS011;2962;51.312;7.378;2023-01-28T15:16:57;5.40;;;3.90;;
5871;SDS011;2962;51.312;7.378;2023-01-28T15:19:25;3.90;;;3.80;;
5871;SDS011;2962;51.312;7.378;2023-01-28T15:21:57;4.50;;;4.27;;
5871;SDS011;2962;51.312;7.378;2023-01-28T15:24:25;4.63;;;3.70;;
5871;SDS011;2962;51.312;7.378;2023-01-28T15:26:51;6.13;;;5.67;;
5871;SDS011;2962;51.312;7.378;2023-01-28T15:29:23;5.37;;;3.90;;
5871;SDS011;2962;51.312;7.378;2023-01-28T15:31:56;4.93;;;4.73;;
5871;SDS011;2962;51.312;7.378;2023-01-28T15:34:22;4.43;;;4.17;;
5871;SDS011;2962;51.312;7.378;2023-01-28T15:36:54;3.80;;;3.80;;
5871;SDS011;2962;51.312;7.378;2023-01-28T15:39:20;8.23;;;4.23;;
5871;SDS011;2962;51.312;7.378;2023-01-28T15:41:48;4.53;;;4.37;;
5871;SDS011;2962;51.312;7.378;2023-01-28T15:44:29;4.37;;;4.27;;
5871;SDS011;2962;51.312;7.378;2023-01-28T15:46:58;3.97;;;3.90;;
5871;SDS011;2962;51.312;7.378;2023-01-28T15:49:29;4.70;;;4.50;;
5871;SDS011;2962;51.312;7.378;2023-01-28T15:51:57;5.27;;;5.00;;
5871;SDS011;2962;51.312;7.378;2023-01-28T15:54:23;4.90;;;4.80;;
5871;SDS011;2962;51.312;7.378;2023-01-28T15:56:49;6.30;;;5.70;;
5871;SDS011;2962;51.312;7.378;2023-01-28T16:01:40;7.97;;;6.50;;
5871;SDS011;2962;51.312;7.378;2023-01-28T16:04:18;7.37;;;6.77;;
5871;SDS011;2962;51.312;7.378;2023-01-28T16:06:46;6.47;;;5.95;;
5871;SDS011;2962;51.312;7.378;2023-01-28T16:09:21;7.30;;;6.67;;
5871;SDS011;2962;51.312;7.378;2023-01-28T16:11:50;7.40;;;6.72;;
5871;SDS011;2962;51.312;7.378;2023-01-28T16:14:20;14.70;;;8.20;;
5871;SDS011;2962;51.312;7.378;2023-01-28T16:16:49;12.48;;;8.27;;
5871;SDS011;2962;51.312;7.378;2023-01-28T16:19:32;9.65;;;8.10;;
5871;SDS011;2962;51.312;7.378;2023-01-28T16:22:03;11.43;;;9.23;;
5871;SDS011;2962;51.312;7.378;2023-01-28T16:24:30;18.48;;;11.18;;
5871;SDS011;2962;51.312;7.378;2023-01-28T16:26:57;12.98;;;9.63;;
5871;SDS011;2962;51.312;7.378;2023-01-28T16:29:27;13.15;;;8.85;;
5871;SDS011;2962;51.312;7.378;2023-01-28T16:31:54;12.52;;;10.23;;
5871;SDS011;2962;51.312;7.378;2023-01-28T16:34:21;16.05;;;11.73;;
5871;SDS011;2962;51.312;7.378;2023-01-28T16:36:46;18.67;;;11.97;;
5871;SDS011;2962;51.312;7.378;2023-01-28T16:39:12;19.50;;;12.37;;
5871;SDS011;2962;51.312;7.378;2023-01-28T16:41:38;17.97;;;12.30;;
5871;SDS011;2962;51.312;7.378;2023-01-28T16:44:13;20.52;;;13.20;;
5871;SDS011;2962;51.312;7.378;2023-01-28T16:46:38;25.85;;;13.98;;
5871;SDS011;2962;51.312;7.378;2023-01-28T16:49:04;25.03;;;14.50;;
5871;SDS011;2962;51.312;7.378;2023-01-28T16:51:29;21.37;;;12.90;;
5871;SDS011;2962;51.312;7.378;2023-01-28T16:53:55;28.03;;;15.97;;
5871;SDS011;2962;51.312;7.378;2023-01-28T16:56:22;27.92;;;15.55;;
5871;SDS011;2962;51.312;7.378;2023-01-28T16:58:52;28.58;;;15.60;;
5871;SDS011;2962;51.312;7.378;2023-01-28T17:01:18;28.00;;;15.00;;
5871;SDS011;2962;51.312;7.378;2023-01-28T17:03:43;29.60;;;18.27;;
5871;SDS011;2962;51.312;7.378;2023-01-28T17:06:09;32.50;;;17.20;;
5871;SDS011;2962;51.312;7.378;2023-01-28T17:08:40;29.77;;;17.05;;
5871;SDS011;2962;51.312;7.378;2023-01-28T17:11:05;29.20;;;16.87;;
5871;SDS011;2962;51.312;7.378;2023-01-28T17:13:31;28.63;;;16.50;;
5871;SDS011;2962;51.312;7.378;2023-01-28T17:15:56;34.97;;;20.37;;